| time (UTC) | temp F | wind direction | speed MPH | gust MPH | rain 1hr in | rain 24hr in | rain mn in | humidity % | barometer mb |
| 20260905164633 | 32 | 0 | 6.0 | 8.0 | 0.00 | 0.00 | 0.00 | 100 | 948.0 |
| 20260905162034 | 32 | 0 | 8.0 | 11.0 | 0.00 | 0.00 | 0.00 | 100 | 947.8 |
| 20260905160710 | 32 | 0 | 7.0 | 11.0 | 0.00 | 0.00 | 0.00 | 100 | 947.6 |
| 20260905160310 | 32 | 0 | 7.0 | 12.0 | 0.00 | 0.00 | 0.00 | 100 | 947.5 |
| 20260905155909 | 32 | 0 | 7.0 | 10.0 | 0.00 | 0.00 | 0.00 | 100 | 947.5 |
| 20260905155509 | 32 | 0 | 7.0 | 10.0 | 0.00 | 0.00 | 0.00 | 100 | 947.5 |
| 20260905155107 | 32 | 0 | 7.0 | 11.0 | 0.00 | 0.00 | 0.00 | 100 | 947.5 |
| 20260905154708 | 32 | 0 | 6.0 | 10.0 | 0.00 | 0.00 | 0.00 | 100 | 947.4 |
| 20260905154308 | 32 | 0 | 5.0 | 7.0 | 0.00 | 0.00 | 0.00 | 100 | 947.5 |
| 20260905153001 | 32 | 0 | 5.0 | 8.0 | 0.00 | 0.00 | 0.00 | 100 | 947.1 |
| 20260905152601 | 32 | 0 | 9.0 | 14.0 | 0.00 | 0.00 | 0.00 | 100 | 947.1 |
| 20260905152159 | 32 | 0 | 10.0 | 46.0 | 0.00 | 0.00 | 0.00 | 100 | 947.1 |
| 20260905151759 | 32 | 0 | 6.0 | 9.0 | 0.00 | 0.00 | 0.00 | 100 | 947.2 |
| 20260905151359 | 32 | 0 | 6.0 | 10.0 | 0.00 | 0.00 | 0.00 | 100 | 947.1 |
| 20260905150958 | 32 | 0 | 10.0 | 14.0 | 0.00 | 0.00 | 0.00 | 100 | 947.1 |
| 20260905150558 | 32 | 0 | 6.0 | 9.0 | 0.00 | 0.00 | 0.00 | 100 | 947.2 |
| 20260905150156 | 32 | 0 | 5.0 | 8.0 | 0.00 | 0.00 | 0.00 | 100 | 947.2 |
| 20260905145756 | 32 | 0 | 8.0 | 12.0 | 0.00 | 0.00 | 0.00 | 100 | 947.3 |
| 20260905145356 | 32 | 0 | 7.0 | 10.0 | 0.00 | 0.00 | 0.00 | 100 | 947.2 |
| 20260905144956 | 32 | 0 | 7.0 | 10.0 | 0.00 | 0.00 | 0.00 | 100 | 947.2 |
| 20260905144556 | 32 | 0 | 8.0 | 10.0 | 0.00 | 0.00 | 0.00 | 100 | 947.2 |
| 20260905144154 | 32 | 0 | 8.0 | 12.0 | 0.00 | 0.00 | 0.00 | 100 | 947.2 |
| 20260905143754 | 32 | 0 | 8.0 | 19.0 | 0.00 | 0.00 | 0.00 | 100 | 947.2 |
| 20260905143354 | 32 | 0 | 9.0 | 13.0 | 0.00 | 0.00 | 0.00 | 100 | 947.2 |
| 20260905142946 | 32 | 0 | 11.0 | 16.0 | 0.00 | 0.00 | 0.00 | 100 | 947.3 |
| 20260905142544 | 32 | 0 | 10.0 | 18.0 | 0.00 | 0.00 | 0.00 | 100 | 947.2 |
| 20260905142141 | 32 | 0 | 8.0 | 13.0 | 0.00 | 0.00 | 0.00 | 100 | 947.2 |
| 20260905141741 | 32 | 0 | 12.0 | 19.0 | 0.00 | 0.00 | 0.00 | 100 | 947.2 |
| 20260905141340 | 32 | 0 | 11.0 | 16.0 | 0.00 | 0.00 | 0.00 | 100 | 947.2 |
| 20260905140940 | 32 | 0 | 10.0 | 20.0 | 0.00 | 0.00 | 0.00 | 100 | 947.1 |
| 20260905140540 | 32 | 0 | 9.0 | 15.0 | 0.00 | 0.00 | 0.00 | 100 | 947.1 |
| 20260905140138 | 32 | 0 | 7.0 | 10.0 | 0.00 | 0.00 | 0.00 | 100 | 947.1 |
| 20260905135738 | 32 | 0 | 6.0 | 8.0 | 0.00 | 0.00 | 0.00 | 100 | 947.1 |
| 20260905135337 | 32 | 0 | 9.0 | 13.0 | 0.00 | 0.00 | 0.00 | 100 | 947.1 |
| 20260905134937 | 32 | 0 | 10.0 | 14.0 | 0.00 | 0.00 | 0.00 | 100 | 947.0 |
| 20260905134537 | 32 | 0 | 7.0 | 10.0 | 0.00 | 0.00 | 0.00 | 100 | 947.1 |
| 20260905134135 | 32 | 0 | 8.0 | 14.0 | 0.00 | 0.00 | 0.00 | 100 | 947.1 |
| 20260905133736 | 32 | 0 | 6.0 | 9.0 | 0.00 | 0.00 | 0.00 | 100 | 947.1 |
| 20260905133335 | 32 | 0 | 6.0 | 11.0 | 0.00 | 0.00 | 0.00 | 100 | 947.2 |
| 20260905132935 | 32 | 0 | 7.0 | 9.0 | 0.00 | 0.00 | 0.00 | 100 | 947.2 |
| 20260905132535 | 32 | 0 | 6.0 | 11.0 | 0.00 | 0.00 | 0.00 | 100 | 947.1 |
| 20260905132133 | 32 | 0 | 8.0 | 11.0 | 0.00 | 0.00 | 0.00 | 100 | 947.1 |
| 20260905131733 | 32 | 0 | 9.0 | 12.0 | 0.00 | 0.00 | 0.00 | 100 | 947.1 |
| 20260905131332 | 32 | 0 | 9.0 | 15.0 | 0.00 | 0.00 | 0.00 | 100 | 947.1 |
| 20260905130932 | 32 | 0 | 8.0 | 12.0 | 0.00 | 0.00 | 0.00 | 100 | 947.0 |
| 20260905130532 | 32 | 0 | 9.0 | 14.0 | 0.00 | 0.00 | 0.00 | 100 | 947.1 |
| 20260905130131 | 32 | 0 | 9.0 | 14.0 | 0.00 | 0.00 | 0.00 | 100 | 947.1 |
| 20260905125731 | 32 | 0 | 9.0 | 13.0 | 0.00 | 0.00 | 0.00 | 100 | 947.0 |
| 20260905125331 | 32 | 0 | 9.0 | 14.0 | 0.00 | 0.00 | 0.00 | 100 | 947.0 |
| 20260905124930 | 32 | 0 | 8.0 | 12.0 | 0.00 | 0.00 | 0.00 | 100 | 947.1 |
| 20260905124530 | 32 | 0 | 7.0 | 11.0 | 0.00 | 0.00 | 0.00 | 100 | 947.2 |
| 20260905124128 | 32 | 0 | 7.0 | 14.0 | 0.00 | 0.00 | 0.00 | 100 | 947.2 |
| 20260905123728 | 32 | 0 | 8.0 | 12.0 | 0.00 | 0.00 | 0.00 | 100 | 947.1 |
| 20260905123328 | 32 | 0 | 10.0 | 15.0 | 0.00 | 0.00 | 0.00 | 100 | 947.2 |
| 20260905122927 | 32 | 0 | 8.0 | 11.0 | 0.00 | 0.00 | 0.00 | 100 | 947.2 |
| 20260905122527 | 32 | 0 | 9.0 | 17.0 | 0.00 | 0.00 | 0.00 | 100 | 947.2 |
| 20260905122126 | 32 | 0 | 9.0 | 12.0 | 0.00 | 0.00 | 0.00 | 100 | 947.3 |
| 20260905121726 | 32 | 0 | 10.0 | 15.0 | 0.00 | 0.00 | 0.00 | 100 | 947.2 |
| 20260905121326 | 32 | 0 | 11.0 | 19.0 | 0.00 | 0.00 | 0.00 | 100 | 947.2 |
| 20260905120918 | 32 | 0 | 14.0 | 20.0 | 0.00 | 0.00 | 0.00 | 100 | 947.2 |
| 20260905120516 | 32 | 0 | 12.0 | 18.0 | 0.00 | 0.00 | 0.00 | 100 | 947.3 |
| 20260905120113 | 32 | 0 | 11.0 | 17.0 | 0.00 | 0.00 | 0.00 | 100 | 947.3 |
| 20260905115712 | 32 | 0 | 12.0 | 16.0 | 0.00 | 0.00 | 0.00 | 100 | 947.4 |
| 20260905115311 | 32 | 0 | 11.0 | 20.0 | 0.00 | 0.00 | 0.00 | 100 | 947.4 |
| 20260905114912 | 32 | 0 | 8.0 | 12.0 | 0.00 | 0.00 | 0.00 | 100 | 947.5 |
| 20260905114512 | 32 | 0 | 7.0 | 12.0 | 0.00 | 0.00 | 0.00 | 100 | 947.6 |
| 20260905114110 | 32 | 0 | 9.0 | 13.0 | 0.00 | 0.00 | 0.00 | 100 | 947.5 |
| 20260905113710 | 32 | 0 | 8.0 | 16.0 | 0.00 | 0.00 | 0.00 | 100 | 947.6 |
| 20260905113309 | 32 | 0 | 10.0 | 13.0 | 0.00 | 0.00 | 0.00 | 100 | 947.7 |
| 20260905112909 | 32 | 0 | 9.0 | 12.0 | 0.00 | 0.00 | 0.00 | 100 | 947.7 |
| 20260905112509 | 32 | 0 | 12.0 | 17.0 | 0.00 | 0.00 | 0.00 | 100 | 947.7 |
| 20260905112107 | 32 | 0 | 11.0 | 18.0 | 0.00 | 0.00 | 0.00 | 100 | 947.8 |
| 20260905111707 | 32 | 0 | 9.0 | 12.0 | 0.00 | 0.00 | 0.00 | 100 | 947.7 |
| 20260905111307 | 32 | 0 | 12.0 | 16.0 | 0.00 | 0.00 | 0.00 | 100 | 947.7 |
| 20260905110907 | 32 | 0 | 8.0 | 12.0 | 0.00 | 0.00 | 0.00 | 100 | 947.8 |
| 20260905110507 | 32 | 0 | 11.0 | 14.0 | 0.00 | 0.00 | 0.00 | 100 | 947.9 |
| 20260905110105 | 32 | 0 | 14.0 | 20.0 | 0.00 | 0.00 | 0.00 | 100 | 947.8 |
| 20260905105705 | 32 | 0 | 13.0 | 18.0 | 0.00 | 0.00 | 0.00 | 100 | 947.7 |
| 20260905105306 | 32 | 0 | 16.0 | 34.0 | 0.00 | 0.00 | 0.00 | 100 | 947.7 |
| 20260905104904 | 32 | 0 | 17.0 | 25.0 | 0.00 | 0.00 | 0.00 | 100 | 947.7 |
| 20260905104504 | 32 | 0 | 13.0 | 18.0 | 0.00 | 0.00 | 0.00 | 100 | 947.7 |
| 20260905104102 | 32 | 0 | 13.0 | 19.0 | 0.00 | 0.00 | 0.00 | 100 | 947.8 |
| 20260905103702 | 32 | 0 | 14.0 | 23.0 | 0.00 | 0.00 | 0.00 | 100 | 947.8 |
| 20260905103302 | 32 | 0 | 11.0 | 15.0 | 0.00 | 0.00 | 0.00 | 100 | 947.8 |
| 20260905102902 | 32 | 0 | 14.0 | 20.0 | 0.00 | 0.00 | 0.00 | 100 | 947.5 |
| 20260905102502 | 32 | 0 | 18.0 | 25.0 | 0.00 | 0.00 | 0.00 | 100 | 947.4 |
| 20260905102100 | 32 | 0 | 10.0 | 14.0 | 0.00 | 0.00 | 0.00 | 100 | 947.4 |
| 20260905101700 | 32 | 0 | 14.0 | 22.0 | 0.00 | 0.00 | 0.00 | 100 | 947.5 |
| 20260905101300 | 32 | 0 | 14.0 | 20.0 | 0.00 | 0.00 | 0.00 | 100 | 947.5 |
| 20260905100859 | 32 | 0 | 13.0 | 19.0 | 0.00 | 0.00 | 0.00 | 100 | 947.6 |
| 20260905100459 | 32 | 0 | 14.0 | 24.0 | 0.00 | 0.00 | 0.00 | 100 | 947.6 |
| 20260905100057 | 32 | 0 | 13.0 | 20.0 | 0.00 | 0.00 | 0.00 | 100 | 947.6 |
| 20260905095657 | 32 | 0 | 9.0 | 16.0 | 0.00 | 0.00 | 0.00 | 100 | 947.6 |
| 20260905095257 | 32 | 0 | 7.0 | 10.0 | 0.00 | 0.00 | 0.00 | 100 | 947.5 |
| 20260905094850 | 32 | 0 | 6.0 | 9.0 | 0.00 | 0.00 | 0.00 | 100 | 947.5 |
| 20260905094448 | 32 | 0 | 5.0 | 9.0 | 0.00 | 0.00 | 0.00 | 100 | 947.5 |
| 20260905094045 | 32 | 0 | 5.0 | 8.0 | 0.00 | 0.00 | 0.00 | 100 | 947.4 |
| 20260905093644 | 32 | 0 | 5.0 | 8.0 | 0.00 | 0.00 | 0.00 | 100 | 947.2 |
| 20260905093243 | 32 | 0 | 6.0 | 8.0 | 0.00 | 0.00 | 0.00 | 100 | 947.2 |
| 20260905092843 | 32 | 0 | 8.0 | 10.0 | 0.00 | 0.00 | 0.00 | 100 | 947.4 |
| 20260905092443 | 32 | 0 | 8.0 | 11.0 | 0.00 | 0.00 | 0.00 | 100 | 947.4 |
| 20260905092041 | 32 | 0 | 8.0 | 11.0 | 0.00 | 0.00 | 0.00 | 100 | 947.4 |
| 20260905091641 | 32 | 0 | 9.0 | 13.0 | 0.00 | 0.00 | 0.00 | 100 | 947.2 |
| 20260905091241 | 32 | 0 | 9.0 | 15.0 | 0.00 | 0.00 | 0.00 | 100 | 947.3 |
| 20260905090841 | 32 | 0 | 8.0 | 12.0 | 0.00 | 0.00 | 0.00 | 100 | 947.3 |
| 20260905090441 | 32 | 0 | 8.0 | 11.0 | 0.00 | 0.00 | 0.00 | 100 | 947.4 |
| 20260905090039 | 32 | 0 | 8.0 | 12.0 | 0.00 | 0.00 | 0.00 | 100 | 947.5 |
| 20260905085639 | 32 | 0 | 9.0 | 17.0 | 0.00 | 0.00 | 0.00 | 100 | 947.4 |
| 20260905085238 | 32 | 0 | 8.0 | 11.0 | 0.00 | 0.00 | 0.00 | 100 | 947.4 |
| 20260905084838 | 32 | 0 | 7.0 | 9.0 | 0.00 | 0.00 | 0.00 | 100 | 947.5 |
| 20260905084438 | 32 | 0 | 8.0 | 11.0 | 0.00 | 0.00 | 0.00 | 100 | 947.7 |
| 20260905084036 | 32 | 0 | 8.0 | 11.0 | 0.00 | 0.00 | 0.00 | 100 | 947.6 |
| 20260905083636 | 32 | 0 | 9.0 | 12.0 | 0.00 | 0.00 | 0.00 | 100 | 947.6 |
| 20260905083236 | 32 | 0 | 8.0 | 10.0 | 0.00 | 0.00 | 0.00 | 100 | 947.6 |
| 20260905082836 | 32 | 0 | 5.0 | 10.0 | 0.00 | 0.00 | 0.00 | 100 | 947.6 |
| 20260905082436 | 32 | 0 | 4.0 | 6.0 | 0.00 | 0.00 | 0.00 | 100 | 947.5 |
| 20260905082034 | 32 | 0 | 5.0 | 6.0 | 0.00 | 0.00 | 0.00 | 100 | 947.3 |
| 20260905081634 | 32 | 0 | 6.0 | 8.0 | 0.00 | 0.00 | 0.00 | 100 | 947.2 |
| 20260905081234 | 32 | 0 | 8.0 | 12.0 | 0.00 | 0.00 | 0.00 | 100 | 947.3 |
| 20260905080833 | 32 | 0 | 8.0 | 11.0 | 0.00 | 0.00 | 0.00 | 100 | 947.5 |
| 20260905080433 | 32 | 0 | 10.0 | 14.0 | 0.00 | 0.00 | 0.00 | 100 | 947.4 |
| 20260905080032 | 32 | 0 | 9.0 | 13.0 | 0.00 | 0.00 | 0.00 | 100 | 947.2 |
| 20260905075632 | 32 | 0 | 9.0 | 16.0 | 0.00 | 0.00 | 0.00 | 100 | 947.2 |
| 20260905075232 | 32 | 0 | 11.0 | 14.0 | 0.00 | 0.00 | 0.00 | 100 | 947.3 |
| 20260905074831 | 32 | 0 | 11.0 | 13.0 | 0.00 | 0.00 | 0.00 | 100 | 947.2 |
| 20260905074431 | 32 | 0 | 10.0 | 15.0 | 0.00 | 0.00 | 0.00 | 100 | 947.1 |
| 20260905074029 | 32 | 0 | 9.0 | 12.0 | 0.00 | 0.00 | 0.00 | 100 | 947.0 |
| 20260905073629 | 32 | 0 | 9.0 | 14.0 | 0.00 | 0.00 | 0.00 | 100 | 946.8 |
| 20260905073229 | 32 | 0 | 12.0 | 18.0 | 0.00 | 0.00 | 0.00 | 100 | 946.8 |
| 20260905072746 | 32 | 0 | 9.0 | 10.0 | 0.00 | 0.00 | 0.00 | 100 | 947.0 |
| 20260905072137 | 32 | 0 | 10.0 | 12.0 | 0.00 | 0.00 | 0.00 | 100 | 947.2 |
| 20260905071241 | 32 | 0 | 10.0 | 15.0 | 0.00 | 0.00 | 0.00 | 100 | 947.2 |
| 20260905070841 | 32 | 0 | 10.0 | 14.0 | 0.00 | 0.00 | 0.00 | 100 | 947.2 |
| 20260905070441 | 32 | 0 | 9.0 | 11.0 | 0.00 | 0.00 | 0.00 | 100 | 947.3 |
| 20260905070010 | 32 | 0 | 9.0 | 12.0 | 0.00 | 0.00 | 0.00 | 100 | 947.0 |
| 20260905065518 | 32 | 0 | 10.0 | 13.0 | 0.00 | 0.00 | 0.00 | 100 | 947.1 |
| 20260905065013 | 32 | 0 | 12.0 | 15.0 | 0.00 | 0.00 | 0.00 | 100 | 947.3 |
| 20260905064202 | 32 | 0 | 13.0 | 21.0 | 0.00 | 0.00 | 0.00 | 100 | 947.1 |
| 20260905063803 | 32 | 0 | 13.0 | 19.0 | 0.00 | 0.00 | 0.00 | 100 | 947.1 |
| 20260905062705 | 32 | 0 | 10.0 | 11.0 | 0.00 | 0.00 | 0.00 | 100 | 946.9 |
| 20260905062205 | 32 | 0 | 11.0 | 15.0 | 0.00 | 0.00 | 0.00 | 100 | 946.9 |
| 20260905061606 | 32 | 0 | 11.0 | 12.0 | 0.00 | 0.00 | 0.00 | 100 | 947.0 |